Time;durP1;ratioP1;P1;durP2;ratioP2;P2;SDS_P1;SDS_P2;PMS_P1;PMS_P2;Temp;Humidity;BMP_temperature;BMP_pressure;BME280_temperature;BME280_humidity;BME280_pressure;Samples;Min_cycle;Max_cycle;Signal;HPM_P1;HPM_P2
2023/05/30 00:00:49;;;;;;;13.18;2.50;;;;;;;12.77;56.31;102518.91;6247271;22;20003;-93
2023/05/30 00:03:14;;;;;;;10.95;2.53;;;;;;;12.78;56.39;102523.34;6246824;22;20328;-95
2023/05/30 00:05:40;;;;;;;9.77;2.33;;;;;;;12.75;56.34;102528.69;6272745;22;20010;-94
2023/05/30 00:08:06;;;;;;;11.43;2.60;;;;;;;12.70;56.97;102527.94;6247502;22;20004;-93
2023/05/30 00:10:32;;;;;;;11.23;2.53;;;;;;;12.71;56.88;102525.22;6247008;22;20013;-93
2023/05/30 00:12:57;;;;;;;10.23;3.00;;;;;;;12.70;57.16;102531.47;6247192;22;20008;-93
2023/05/30 00:15:25;;;;;;;14.35;3.05;;;;;;;12.71;57.20;102530.53;6246833;22;20011;-93
2023/05/30 00:17:52;;;;;;;10.30;2.25;;;;;;;12.72;57.30;102523.44;6248718;22;20370;-93
2023/05/30 00:20:22;;;;;;;9.75;2.50;;;;;;;12.61;57.50;102536.09;6247672;22;20030;-93
2023/05/30 00:22:47;;;;;;;9.63;2.78;;;;;;;12.57;58.21;102547.66;6247383;22;20119;-93
2023/05/30 00:25:13;;;;;;;10.65;2.38;;;;;;;12.48;58.41;102535.47;6245452;22;20243;-93
2023/05/30 00:27:38;;;;;;;11.05;2.42;;;;;;;12.51;58.48;102538.94;6247081;22;20004;-94
2023/05/30 00:30:04;;;;;;;16.48;2.50;;;;;;;12.49;58.46;102545.16;6246139;22;20094;-93
2023/05/30 00:32:29;;;;;;;14.52;2.67;;;;;;;12.39;58.53;102535.66;6247083;22;20086;-93
2023/05/30 00:34:54;;;;;;;11.45;3.20;;;;;;;12.33;58.92;102534.00;6246183;22;20031;-93
2023/05/30 00:37:20;;;;;;;8.65;2.10;;;;;;;12.29;59.29;102529.66;6246214;22;20000;-93
2023/05/30 00:39:46;;;;;;;10.38;2.35;;;;;;;12.31;59.24;102533.19;6247772;22;20004;-94
2023/05/30 00:42:11;;;;;;;13.18;3.05;;;;;;;12.32;59.23;102547.31;6246322;22;20003;-92
2023/05/30 00:44:36;;;;;;;9.13;2.35;;;;;;;12.18;59.88;102532.56;6247235;22;20033;-92
2023/05/30 00:47:02;;;;;;;9.25;2.40;;;;;;;12.19;60.10;102547.53;6245270;22;20014;-93
2023/05/30 00:49:27;;;;;;;8.27;1.90;;;;;;;12.13;60.04;102542.38;6247631;22;20008;-93
2023/05/30 00:51:53;;;;;;;9.95;2.97;;;;;;;12.13;60.39;102542.38;6241486;23;20020;-94
2023/05/30 00:54:19;;;;;;;8.68;2.67;;;;;;;12.21;60.29;102555.47;6241565;23;20397;-93
2023/05/30 00:56:46;;;;;;;13.65;2.75;;;;;;;12.12;60.20;102543.25;6240961;23;20000;-94
2023/05/30 00:59:11;;;;;;;11.95;2.88;;;;;;;12.05;60.35;102552.25;6243100;23;20043;-93
2023/05/30 01:01:37;;;;;;;14.48;3.00;;;;;;;12.04;60.90;102547.84;6241122;23;20004;-93
2023/05/30 01:04:02;;;;;;;10.57;2.63;;;;;;;12.11;60.65;102551.25;6243945;22;20103;-92
2023/05/30 01:06:29;;;;;;;11.57;2.88;;;;;;;12.14;60.41;102554.72;6241657;23;20011;-93
2023/05/30 01:08:59;;;;;;;7.95;2.58;;;;;;;12.04;61.13;102555.81;6244661;22;19996;-93
2023/05/30 01:11:30;;;;;;;9.20;2.38;;;;;;;11.94;61.23;102549.81;6241637;23;20089;-93
2023/05/30 01:14:22;;;;;;;12.23;2.70;;;;;;;12.04;60.85;102557.59;6241748;23;20078;-94
2023/05/30 01:16:55;;;;;;;14.45;3.08;;;;;;;11.93;61.42;102541.84;6241716;23;20000;-93
2023/05/30 01:19:23;;;;;;;10.68;3.17;;;;;;;11.97;61.73;102556.81;6241261;23;20000;-93
2023/05/30 01:21:59;;;;;;;9.35;2.53;;;;;;;11.91;62.08;102551.63;6243371;22;20300;-94
2023/05/30 01:24:36;;;;;;;7.97;2.60;;;;;;;11.87;62.19;102552.56;6240310;23;20008;-93
2023/05/30 01:27:16;;;;;;;9.75;2.58;;;;;;;11.83;62.31;102557.06;6241555;23;20004;-95
2023/05/30 01:29:42;;;;;;;8.82;2.33;;;;;;;11.84;62.33;102544.69;6242341;23;20375;-93
2023/05/30 01:32:08;;;;;;;11.57;3.30;;;;;;;11.78;62.49;102540.34;6240942;23;20004;-94
2023/05/30 01:34:34;;;;;;;13.45;3.20;;;;;;;11.79;62.79;102547.38;6240901;23;20015;-93
2023/05/30 01:36:59;;;;;;;15.90;2.85;;;;;;;11.74;62.96;102549.22;6241750;23;20000;-94
2023/05/30 01:39:25;;;;;;;11.43;2.55;;;;;;;11.72;62.83;102545.75;6240632;23;20528;-92
2023/05/30 01:42:12;;;;;;;15.55;2.95;;;;;;;11.79;62.63;102557.09;6241065;23;20384;-93
2023/05/30 01:44:54;;;;;;;11.20;3.10;;;;;;;11.78;62.02;102550.94;6240829;23;20011;-93
2023/05/30 01:47:38;;;;;;;11.57;2.72;;;;;;;11.74;61.77;102539.50;6240426;23;20086;-93
2023/05/30 01:50:38;;;;;;;10.38;2.75;;;;;;;11.90;61.56;102569.31;6242082;23;20534;-93
2023/05/30 01:53:09;;;;;;;16.80;3.35;;;;;;;11.78;62.29;102566.84;6188205;23;20024;-93
2023/05/30 01:55:37;;;;;;;11.23;2.92;;;;;;;11.70;62.25;102558.13;6213700;23;20044;-92
2023/05/30 01:58:04;;;;;;;12.50;2.95;;;;;;;11.79;62.74;102573.88;6242439;23;20486;-93
2023/05/30 02:00:30;;;;;;;9.73;2.67;;;;;;;11.72;62.54;102569.59;6214444;23;20034;-93
2023/05/30 02:02:56;;;;;;;11.80;2.88;;;;;;;11.70;62.51;102581.97;6214964;23;20117;-94
2023/05/30 02:05:21;;;;;;;9.73;2.75;;;;;;;11.60;63.02;102573.31;6213418;23;20004;-93
2023/05/30 02:07:46;;;;;;;16.55;3.33;;;;;;;11.49;62.76;102572.63;6241610;23;20004;-93
2023/05/30 02:10:12;;;;;;;10.15;2.92;;;;;;;11.46;63.61;102578.84;6241691;23;20026;-93
2023/05/30 02:12:37;;;;;;;9.77;2.70;;;;;;;11.45;63.67;102581.53;6214595;23;20119;-93
2023/05/30 02:15:03;;;;;;;13.80;3.53;;;;;;;11.45;63.31;102577.09;6213456;23;20012;-92
2023/05/30 02:17:29;;;;;;;13.65;3.20;;;;;;;11.44;63.52;102577.13;6214082;23;20027;-92
2023/05/30 02:19:54;;;;;;;8.98;3.03;;;;;;;11.38;63.50;102583.41;6241674;23;20011;-92
2023/05/30 02:22:20;;;;;;;15.05;3.10;;;;;;;11.42;63.68;102582.47;6242737;23;20587;-94
2023/05/30 02:24:46;;;;;;;16.27;3.60;;;;;;;11.42;63.76;102586.84;6214151;23;20038;-93
2023/05/30 02:27:11;;;;;;;12.80;3.00;;;;;;;11.42;63.05;102584.19;6214320;23;20340;-93
2023/05/30 02:29:37;;;;;;;10.88;2.70;;;;;;;11.38;63.39;102577.22;6214647;23;20003;-92
2023/05/30 02:32:02;;;;;;;11.82;2.97;;;;;;;11.50;62.72;102592.91;6214558;23;20349;-93
2023/05/30 02:34:28;;;;;;;13.20;3.80;;;;;;;11.49;62.91;102578.78;6214383;23;20090;-92
2023/05/30 02:36:53;;;;;;;11.02;2.90;;;;;;;11.38;62.84;102579.88;6215045;23;20004;-93
2023/05/30 02:39:19;;;;;;;9.48;2.88;;;;;;;11.24;63.24;102580.09;6215306;23;20003;-93
2023/05/30 02:41:44;;;;;;;10.85;3.28;;;;;;;11.18;64.13;102573.09;6240796;23;20008;-93
2023/05/30 02:44:09;;;;;;;12.93;3.78;;;;;;;11.18;63.77;102581.03;6214158;23;20015;-94
2023/05/30 02:46:35;;;;;;;10.13;3.17;;;;;;;11.10;64.10;102587.38;6241018;23;20000;-93
2023/05/30 02:49:01;;;;;;;9.80;3.13;;;;;;;10.96;64.58;102587.56;6242011;23;20007;-93
2023/05/30 02:51:27;;;;;;;8.90;3.53;;;;;;;10.81;65.05;102578.03;6215316;23;20036;-93
2023/05/30 02:53:53;;;;;;;8.27;3.15;;;;;;;10.80;65.28;102573.63;6240429;23;20011;-92
2023/05/30 02:56:20;;;;;;;11.95;3.70;;;;;;;10.79;65.53;102574.53;6241369;23;20007;-93
2023/05/30 02:58:46;;;;;;;9.27;3.00;;;;;;;10.64;65.91;102574.75;6242186;23;20004;-94
2023/05/30 03:01:11;;;;;;;14.43;3.30;;;;;;;10.59;66.18;102568.66;6242379;23;20431;-92
2023/05/30 03:03:37;;;;;;;10.15;3.45;;;;;;;10.65;66.42;102574.72;6243672;22;20011;-93
2023/05/30 03:06:04;;;;;;;14.68;3.17;;;;;;;10.61;65.98;102569.47;6240923;23;20431;-93
2023/05/30 03:08:30;;;;;;;12.40;3.00;;;;;;;10.41;66.57;102554.75;6243135;23;20423;-92
2023/05/30 03:10:56;;;;;;;12.07;3.20;;;;;;;10.53;67.12;102580.16;6242927;23;20028;-92
2023/05/30 03:13:21;;;;;;;13.70;3.70;;;;;;;10.61;66.75;102574.78;6244077;23;20004;-93
2023/05/30 03:15:47;;;;;;;17.08;3.58;;;;;;;10.65;66.36;102557.97;6242022;23;20098;-93
2023/05/30 03:18:12;;;;;;;10.90;3.10;;;;;;;10.82;66.04;102568.31;6242474;23;20000;-92
2023/05/30 03:20:38;;;;;;;11.15;3.85;;;;;;;10.86;66.16;102577.97;6241370;23;20008;-93
2023/05/30 03:23:03;;;;;;;10.98;4.22;;;;;;;10.96;66.33;102587.56;6241682;23;20084;-93
2023/05/30 03:25:28;;;;;;;16.83;3.50;;;;;;;10.99;66.27;102587.50;6242189;22;20008;-90
2023/05/30 03:27:54;;;;;;;17.20;4.18;;;;;;;11.01;66.28;102588.38;6244114;22;20004;-92
2023/05/30 03:30:22;;;;;;;13.27;3.75;;;;;;;11.04;66.01;102580.34;6243970;23;20008;-93
2023/05/30 03:32:51;;;;;;;12.00;3.83;;;;;;;11.11;65.57;102579.38;6241447;23;20004;-93
2023/05/30 03:35:16;;;;;;;14.23;3.65;;;;;;;11.15;65.76;102598.75;6242560;22;20010;-92
2023/05/30 03:37:42;;;;;;;9.65;3.55;;;;;;;11.14;65.95;102603.16;6241256;23;20456;-93
2023/05/30 03:40:08;;;;;;;11.63;3.95;;;;;;;11.14;66.10;102600.50;6241597;23;20087;-93
2023/05/30 03:42:34;;;;;;;10.68;3.47;;;;;;;11.15;66.05;102604.94;6243610;22;20004;-93
2023/05/30 03:44:59;;;;;;;11.18;3.35;;;;;;;11.30;65.89;102616.19;6239765;23;20008;-92
2023/05/30 03:47:25;;;;;;;10.82;3.55;;;;;;;11.28;65.12;102615.31;6241106;23;20082;-94
2023/05/30 03:49:50;;;;;;;13.43;4.28;;;;;;;11.29;65.55;102606.50;6241464;23;20054;-93
2023/05/30 03:52:16;;;;;;;17.48;3.90;;;;;;;11.34;65.18;102610.81;6240820;23;20016;-93
2023/05/30 03:54:41;;;;;;;16.60;4.50;;;;;;;11.29;65.41;102609.16;6239144;23;20481;-92
2023/05/30 03:57:06;;;;;;;9.75;3.35;;;;;;;11.35;65.28;102609.03;6240009;23;20004;-93
2023/05/30 03:59:32;;;;;;;10.10;3.20;;;;;;;11.34;65.38;102617.91;6243220;22;20039;-93
2023/05/30 04:01:57;;;;;;;8.73;3.17;;;;;;;11.30;65.38;102601.16;6241062;23;20004;-93
2023/05/30 04:04:22;;;;;;;10.90;3.90;;;;;;;11.33;65.76;102603.78;6239862;23;20039;-93
2023/05/30 04:06:47;;;;;;;15.05;3.97;;;;;;;11.39;65.45;102621.34;6240401;23;20008;-92
2023/05/30 04:09:13;;;;;;;18.15;5.18;;;;;;;11.36;65.51;102609.00;6241883;23;20000;-94
2023/05/30 04:11:38;;;;;;;17.02;4.55;;;;;;;11.51;65.72;102626.44;6240772;23;20012;-93
2023/05/30 04:14:03;;;;;;;11.95;3.05;;;;;;;11.40;65.12;102600.13;6240489;23;20046;-93
2023/05/30 04:16:29;;;;;;;12.10;3.65;;;;;;;11.51;65.16;102615.84;6239989;23;20003;-93
2023/05/30 04:18:54;;;;;;;13.73;3.97;;;;;;;11.55;65.00;102616.69;6242694;22;20522;-93
2023/05/30 04:21:20;;;;;;;11.20;4.07;;;;;;;11.61;65.06;102617.47;6241367;23;20008;-93
2023/05/30 04:23:45;;;;;;;11.45;3.40;;;;;;;11.66;64.81;102609.44;6241142;23;20448;-93
2023/05/30 04:26:10;;;;;;;9.10;3.70;;;;;;;11.66;64.88;102626.22;6241738;23;20075;-93
2023/05/30 04:28:36;;;;;;;14.18;4.18;;;;;;;11.67;64.98;102617.38;6241144;23;20000;-91
2023/05/30 04:31:05;;;;;;;16.23;3.85;;;;;;;11.77;64.92;102625.16;6240589;23;20004;-93
2023/05/30 04:33:35;;;;;;;11.85;3.42;;;;;;;11.75;64.92;102620.78;6242336;22;20000;-94
2023/05/30 04:36:09;;;;;;;10.68;3.72;;;;;;;11.83;65.02;102633.03;6241830;22;20008;-94
2023/05/30 04:38:34;;;;;;;17.40;4.22;;;;;;;11.75;65.05;102612.81;6241151;23;20141;-93
2023/05/30 04:41:02;;;;;;;11.85;3.58;;;;;;;11.83;65.06;102617.13;6241204;23;20034;-92
2023/05/30 04:43:28;;;;;;;13.88;4.03;;;;;;;11.96;65.33;102629.28;6240705;23;20011;-93
2023/05/30 04:45:54;;;;;;;11.88;3.60;;;;;;;11.99;64.52;102623.94;6241710;22;20004;-92
2023/05/30 04:48:19;;;;;;;15.35;3.97;;;;;;;11.99;64.65;102608.91;6240696;23;20011;-93
2023/05/30 04:50:46;;;;;;;15.73;3.70;;;;;;;12.11;64.44;102628.13;6241964;23;20054;-92
2023/05/30 04:53:15;;;;;;;11.88;3.60;;;;;;;12.20;63.71;102628.84;6240424;23;20012;-92
2023/05/30 04:55:44;;;;;;;11.25;3.60;;;;;;;12.27;63.34;102615.50;6240511;23;20030;-93
2023/05/30 04:58:12;;;;;;;12.18;3.72;;;;;;;12.36;63.21;102599.41;6241821;23;20004;-94
2023/05/30 05:00:38;;;;;;;12.63;3.70;;;;;;;12.50;62.96;102610.63;6242620;22;20008;-93
2023/05/30 05:03:04;;;;;;;14.77;3.83;;;;;;;12.55;62.78;102631.75;6241441;23;20705;-94
2023/05/30 05:05:29;;;;;;;12.77;4.07;;;;;;;12.60;62.63;102629.88;6240643;23;20444;-93
2023/05/30 05:07:55;;;;;;;14.50;4.05;;;;;;;12.62;62.75;102620.09;6242309;23;20015;-92
2023/05/30 05:10:20;;;;;;;15.25;4.07;;;;;;;12.63;62.47;102622.69;6242388;23;20000;-94
2023/05/30 05:12:46;;;;;;;13.63;3.83;;;;;;;12.56;62.28;102610.47;6241916;23;20062;-94
2023/05/30 05:15:12;;;;;;;20.92;5.10;;;;;;;12.67;61.95;102621.75;6241415;23;20019;-94
2023/05/30 05:17:38;;;;;;;15.07;4.15;;;;;;;12.80;61.99;102629.47;6242272;22;20379;-94
2023/05/30 05:20:05;;;;;;;13.02;4.13;;;;;;;12.84;61.53;102624.06;6241599;23;20504;-93
2023/05/30 05:22:35;;;;;;;11.98;4.25;;;;;;;12.94;61.37;102624.72;6240769;23;20436;-93
2023/05/30 05:25:00;;;;;;;13.48;4.30;;;;;;;12.89;61.07;102608.03;6239711;23;20014;-94
2023/05/30 05:27:27;;;;;;;13.43;4.30;;;;;;;12.92;61.31;102619.47;6240394;23;20083;-93
2023/05/30 05:29:53;;;;;;;11.95;3.75;;;;;;;12.96;61.58;102615.84;6239911;23;20336;-93
2023/05/30 05:32:18;;;;;;;12.38;4.25;;;;;;;12.97;61.31;102616.72;6240077;23;20011;-93
2023/05/30 05:34:43;;;;;;;13.65;4.65;;;;;;;13.06;61.03;102618.28;6240565;23;20416;-94
2023/05/30 05:37:09;;;;;;;16.70;4.53;;;;;;;13.08;60.79;102620.00;6240064;23;20000;-94
2023/05/30 05:39:34;;;;;;;10.75;4.28;;;;;;;13.10;60.98;102623.47;6240818;22;20031;-93
2023/05/30 05:42:01;;;;;;;16.88;4.22;;;;;;;13.17;60.25;102627.75;6242162;23;20004;-93
2023/05/30 05:44:27;;;;;;;9.35;3.85;;;;;;;13.15;60.59;102611.00;6238846;23;20467;-92
2023/05/30 05:46:52;;;;;;;16.73;4.93;;;;;;;13.21;60.15;102608.19;6240185;23;20011;-94
2023/05/30 05:49:18;;;;;;;12.38;4.18;;;;;;;13.36;59.99;102622.06;6240672;23;20004;-95
2023/05/30 05:51:43;;;;;;;13.85;4.65;;;;;;;13.32;60.05;102615.06;6252480;22;20012;-93
2023/05/30 05:54:08;;;;;;;10.65;3.90;;;;;;;13.33;60.28;102615.03;6271761;22;20487;-94
2023/05/30 05:56:33;;;;;;;14.18;4.07;;;;;;;13.41;60.00;102633.44;6244267;22;20007;-93
2023/05/30 05:58:59;;;;;;;13.63;4.18;;;;;;;13.55;60.05;102630.47;6246108;22;20332;-95
2023/05/30 06:01:24;;;;;;;8.75;4.13;;;;;;;13.67;59.17;102631.06;6271918;22;20142;-95
2023/05/30 06:03:50;;;;;;;17.83;4.78;;;;;;;13.71;59.37;102631.88;6271555;22;20061;-95
2023/05/30 06:06:15;;;;;;;14.65;4.70;;;;;;;13.78;59.38;102634.31;6242973;22;20082;-94
2023/05/30 06:08:40;;;;;;;11.15;4.40;;;;;;;13.84;59.21;102641.25;6245253;22;20383;-93
2023/05/30 06:11:06;;;;;;;12.45;4.55;;;;;;;13.84;58.79;102627.09;6245053;22;20335;-93
2023/05/30 06:13:31;;;;;;;10.23;4.13;;;;;;;13.85;58.77;102626.16;6244672;22;20078;-94
2023/05/30 06:15:56;;;;;;;13.02;4.15;;;;;;;13.86;58.15;102623.50;6243440;22;20003;-93
2023/05/30 06:18:22;;;;;;;10.05;4.10;;;;;;;13.91;57.86;102623.38;6245470;22;20296;-96
2023/05/30 06:20:47;;;;;;;10.27;4.13;;;;;;;14.10;58.12;102634.41;6244958;22;20034;-94
2023/05/30 06:23:12;;;;;;;14.82;4.60;;;;;;;14.16;58.07;102635.09;6245375;22;20014;-92
2023/05/30 06:25:37;;;;;;;11.63;5.30;;;;;;;14.24;57.77;102640.25;6243325;22;20435;-93
2023/05/30 06:28:03;;;;;;;12.00;5.15;;;;;;;14.24;57.40;102629.59;6245885;22;20010;-96
2023/05/30 06:30:28;;;;;;;20.45;5.55;;;;;;;14.28;57.50;102634.78;6245472;22;20043;-95
2023/05/30 06:32:54;;;;;;;11.90;3.78;;;;;;;14.42;56.83;102646.84;6245833;22;20507;-94
2023/05/30 06:35:19;;;;;;;12.23;4.53;;;;;;;14.48;55.89;102646.72;6245453;22;20046;-95
2023/05/30 06:37:45;;;;;;;11.60;4.13;;;;;;;14.49;56.27;102644.00;6245520;22;20007;-94
2023/05/30 06:40:10;;;;;;;8.50;4.35;;;;;;;14.57;56.20;102640.25;6245246;22;20007;-94
2023/05/30 06:42:36;;;;;;;10.57;5.03;;;;;;;14.53;55.50;102642.13;6246282;22;20022;-95
2023/05/30 06:45:01;;;;;;;9.70;4.38;;;;;;;14.49;55.45;102622.72;6244898;22;20007;-94
2023/05/30 06:47:26;;;;;;;11.90;4.32;;;;;;;14.57;55.35;102634.94;6243919;22;20004;-95
2023/05/30 06:49:51;;;;;;;13.10;4.20;;;;;;;14.62;55.13;102628.56;6245444;22;20004;-95
2023/05/30 06:52:17;;;;;;;15.38;4.53;;;;;;;14.57;55.41;102625.16;6272343;22;20435;-94
2023/05/30 06:54:42;;;;;;;15.38;5.18;;;;;;;14.70;55.14;102623.91;6271594;22;20004;-95
2023/05/30 06:57:07;;;;;;;14.07;4.43;;;;;;;14.88;54.63;102632.28;6243788;22;20328;-93
2023/05/30 06:59:34;;;;;;;11.90;4.38;;;;;;;14.86;54.26;102645.63;6244184;22;20003;-94
2023/05/30 07:02:00;;;;;;;9.43;4.70;;;;;;;14.90;54.02;102649.06;6242819;22;20375;-93
2023/05/30 07:04:26;;;;;;;12.50;4.55;;;;;;;14.85;53.97;102635.03;6243390;22;20431;-94
2023/05/30 07:06:52;;;;;;;8.80;5.00;;;;;;;15.01;53.92;102646.94;6244086;22;20601;-96
2023/05/30 07:09:17;;;;;;;10.00;4.38;;;;;;;15.08;53.43;102643.19;6245369;22;20010;-94
2023/05/30 07:11:43;;;;;;;10.50;4.65;;;;;;;15.14;52.99;102644.78;6244469;22;20014;-95
2023/05/30 07:14:08;;;;;;;10.45;4.60;;;;;;;15.22;53.28;102651.63;6244764;22;20061;-94
2023/05/30 07:16:33;;;;;;;10.00;4.90;;;;;;;15.25;52.02;102643.56;6244828;22;20031;-93
2023/05/30 07:18:58;;;;;;;12.50;4.28;;;;;;;15.28;52.12;102647.91;6272723;22;20007;-94
2023/05/30 07:21:28;;;;;;;8.05;4.10;;;;;;;15.28;52.04;102640.78;6273623;22;20038;-95
2023/05/30 07:23:53;;;;;;;10.65;4.82;;;;;;;15.23;52.56;102647.19;6249356;22;20008;-94
2023/05/30 07:26:18;;;;;;;13.45;5.15;;;;;;;15.32;52.48;102653.09;6271542;22;20431;-94
2023/05/30 07:28:43;;;;;;;7.97;4.47;;;;;;;15.43;52.69;102660.75;6243210;22;20045;-95
2023/05/30 07:31:09;;;;;;;9.15;4.78;;;;;;;15.40;52.15;102644.88;6272745;22;20035;-94
2023/05/30 07:33:34;;;;;;;9.18;4.88;;;;;;;15.62;51.75;102661.06;6272254;22;20011;-93
2023/05/30 07:35:59;;;;;;;12.35;4.40;;;;;;;16.10;51.04;102657.72;6244610;22;20003;-94
2023/05/30 07:38:25;;;;;;;11.57;4.70;;;;;;;16.17;50.18;102661.03;6271906;22;20305;-96
2023/05/30 07:40:50;;;;;;;9.68;3.97;;;;;;;16.50;49.91;102661.63;6245837;22;20497;-95
2023/05/30 07:43:15;;;;;;;9.65;4.53;;;;;;;17.37;48.84;102654.84;6246646;22;20035;-93
2023/05/30 07:45:41;;;;;;;11.35;4.53;;;;;;;18.30;46.03;102656.31;6245575;22;20000;-95
2023/05/30 07:48:06;;;;;;;11.38;4.32;;;;;;;18.64;45.28;102666.41;6247140;22;20011;-94
2023/05/30 07:50:32;;;;;;;12.10;4.40;;;;;;;18.78;44.58;102661.31;6246782;22;20336;-94
2023/05/30 07:52:57;;;;;;;10.30;4.18;;;;;;;19.32;43.44;102661.50;6246969;22;20313;-94
2023/05/30 07:55:22;;;;;;;8.23;4.68;;;;;;;19.85;42.25;102653.53;6245868;22;20491;-94
2023/05/30 07:57:48;;;;;;;12.15;4.43;;;;;;;20.59;40.51;102652.44;6272636;22;20003;-94
2023/05/30 08:00:13;;;;;;;13.50;4.70;;;;;;;20.61;39.57;102661.25;6247517;22;20016;-94
2023/05/30 08:02:39;;;;;;;9.68;4.40;;;;;;;20.00;41.54;102651.00;6246072;22;20347;-95
2023/05/30 08:05:04;;;;;;;15.57;4.53;;;;;;;19.91;40.96;102643.41;6245777;22;20003;-95
2023/05/30 08:07:32;;;;;;;11.25;4.57;;;;;;;19.79;40.99;102650.28;6246638;22;20011;-94
2023/05/30 08:09:58;;;;;;;9.20;4.32;;;;;;;19.43;42.49;102648.44;6246872;22;20407;-95
2023/05/30 08:12:28;;;;;;;10.82;4.72;;;;;;;19.15;41.62;102642.66;6250327;22;19999;-96
2023/05/30 08:14:55;;;;;;;9.20;4.28;;;;;;;18.77;43.99;102650.69;6251607;22;20077;-94
2023/05/30 08:17:23;;;;;;;9.38;5.18;;;;;;;18.66;44.47;102642.25;6246729;22;20440;-93
2023/05/30 08:19:50;;;;;;;10.15;4.50;;;;;;;18.67;43.09;102639.50;6247585;22;20082;-95
2023/05/30 08:22:15;;;;;;;10.07;4.82;;;;;;;18.65;42.62;102635.13;6247141;22;20352;-95
2023/05/30 08:24:41;;;;;;;8.38;4.30;;;;;;;18.84;43.08;102638.75;6248667;22;20012;-94
2023/05/30 08:27:10;;;;;;;12.20;5.45;;;;;;;19.55;42.20;102639.81;6245348;22;20086;-95
2023/05/30 08:29:36;;;;;;;11.50;5.40;;;;;;;21.01;39.62;102643.84;6273888;22;20369;-93
2023/05/30 08:32:01;;;;;;;11.27;4.50;;;;;;;22.15;37.15;102649.84;6273216;22;20091;-94
2023/05/30 08:34:27;;;;;;;8.88;4.47;;;;;;;22.88;35.54;102639.00;6250171;22;20051;-94
2023/05/30 08:36:53;;;;;;;10.63;4.90;;;;;;;22.66;35.36;102638.63;6254651;22;20003;-94
2023/05/30 08:39:19;;;;;;;9.45;5.10;;;;;;;22.38;36.54;102647.56;6256750;22;20495;-95
2023/05/30 08:41:46;;;;;;;10.32;5.10;;;;;;;22.14;37.16;102639.16;6289588;22;20003;-94
2023/05/30 08:44:12;;;;;;;12.13;5.32;;;;;;;22.32;36.06;102634.47;6257964;22;20058;-95
2023/05/30 08:46:42;;;;;;;8.50;4.40;;;;;;;22.76;35.79;102642.50;6253224;22;20011;-92
2023/05/30 08:49:13;;;;;;;8.40;4.30;;;;;;;23.54;35.62;102620.38;6252003;22;20332;-91
2023/05/30 08:51:41;;;;;;;11.77;4.53;;;;;;;23.74;35.09;102621.81;6252430;22;20042;-93
2023/05/30 08:54:13;;;;;;;10.13;4.72;;;;;;;24.41;33.71;102623.44;6248786;22;20419;-91
2023/05/30 08:56:45;;;;;;;7.65;5.20;;;;;;;23.90;33.38;102617.94;6272526;22;20435;-92
2023/05/30 08:59:13;;;;;;;9.13;4.80;;;;;;;24.19;35.28;102624.03;6278974;22;19999;-93
2023/05/30 09:01:39;;;;;;;10.38;5.10;;;;;;;24.39;33.24;102617.28;6249770;22;20011;-94
2023/05/30 09:04:07;;;;;;;8.20;4.90;;;;;;;24.46;32.36;102609.59;6273366;22;20449;-94
2023/05/30 09:06:36;;;;;;;9.80;5.07;;;;;;;24.36;33.37;102614.78;6247309;22;20003;-94
2023/05/30 09:09:03;;;;;;;11.70;4.78;;;;;;;24.28;34.30;102608.16;6254904;22;20008;-94
2023/05/30 09:11:28;;;;;;;9.13;4.22;;;;;;;24.38;33.36;102604.72;6247063;22;20035;-92
2023/05/30 09:13:55;;;;;;;8.25;4.72;;;;;;;24.62;32.31;102622.88;6243833;22;20018;-93
2023/05/30 09:16:21;;;;;;;10.55;4.82;;;;;;;24.40;33.52;102613.59;6277450;22;20000;-95
2023/05/30 09:18:46;;;;;;;6.72;4.95;;;;;;;24.28;33.64;102605.44;6253412;22;20033;-94
2023/05/30 09:21:12;;;;;;;11.75;4.68;;;;;;;24.43;34.29;102604.38;6280830;22;20133;-94
2023/05/30 09:23:40;;;;;;;9.40;5.40;;;;;;;24.36;33.71;102613.88;6257219;22;20347;-93
2023/05/30 09:26:07;;;;;;;7.78;5.03;;;;;;;24.40;35.65;102615.44;6283096;22;20007;-94
2023/05/30 09:28:35;;;;;;;11.18;5.38;;;;;;;24.51;32.38;102609.25;6274494;22;20000;-92
2023/05/30 09:31:02;;;;;;;9.50;5.35;;;;;;;24.53;33.25;102610.00;6277214;22;20072;-93
2023/05/30 09:33:44;;;;;;;8.55;4.93;;;;;;;24.52;34.51;102598.31;6256508;22;20007;-93
2023/05/30 09:36:21;;;;;;;7.40;4.80;;;;;;;24.52;34.34;102600.16;6255805;22;20011;-94
2023/05/30 09:39:05;;;;;;;11.60;5.60;;;;;;;24.47;33.23;102600.50;6282119;22;20015;-95
2023/05/30 09:41:31;;;;;;;12.32;5.32;;;;;;;24.69;33.84;102597.13;6254777;22;20003;-94
2023/05/30 09:43:57;;;;;;;11.05;5.70;;;;;;;24.82;32.77;102589.00;6249642;22;20362;-94
2023/05/30 09:46:23;;;;;;;9.45;5.00;;;;;;;25.10;31.89;102590.56;6247536;22;20003;-93
2023/05/30 09:48:49;;;;;;;11.20;5.97;;;;;;;25.10;31.90;102601.41;6274730;22;20473;-94
2023/05/30 09:51:16;;;;;;;12.10;5.78;;;;;;;25.08;33.43;102587.09;6244855;22;20052;-93
2023/05/30 09:54:03;;;;;;;11.15;5.93;;;;;;;25.22;32.39;102586.94;6245937;22;20000;-93
2023/05/30 09:56:42;;;;;;;8.95;6.07;;;;;;;24.92;32.00;102590.91;6275642;22;20499;-93
2023/05/30 09:59:13;;;;;;;11.68;5.43;;;;;;;24.97;34.21;102585.16;6274909;22;20040;-95
2023/05/30 10:01:45;;;;;;;8.85;5.57;;;;;;;24.92;32.67;102588.19;6246489;22;20060;-92
2023/05/30 10:04:21;;;;;;;10.10;5.97;;;;;;;24.46;34.18;102576.28;6246125;22;20102;-94
2023/05/30 10:06:48;;;;;;;7.05;5.55;;;;;;;24.78;33.95;102577.53;6247697;22;20472;-93
2023/05/30 10:09:14;;;;;;;8.95;5.45;;;;;;;25.16;32.93;102582.84;6247366;22;20062;-94
2023/05/30 10:11:41;;;;;;;10.82;5.47;;;;;;;25.35;31.81;102574.22;6246950;22;20419;-93
2023/05/30 10:14:07;;;;;;;10.02;5.50;;;;;;;25.28;31.33;102572.09;6249522;22;20003;-94
2023/05/30 10:16:40;;;;;;;9.35;6.15;;;;;;;24.91;32.51;102564.84;6272276;22;20719;-93
2023/05/30 10:19:11;;;;;;;13.70;5.65;;;;;;;25.32;32.67;102578.97;6248445;22;20082;-94
2023/05/30 10:21:38;;;;;;;7.78;5.22;;;;;;;25.80;31.05;102571.72;6248585;22;20462;-94
2023/05/30 10:24:06;;;;;;;10.90;5.60;;;;;;;25.67;31.04;102571.75;6271891;22;20003;-93
2023/05/30 10:26:35;;;;;;;10.23;6.20;;;;;;;25.81;30.87;102575.28;6245591;22;20004;-94
2023/05/30 10:29:05;;;;;;;9.88;5.85;;;;;;;26.14;30.97;102583.50;6226955;22;20012;-95
2023/05/30 10:31:31;;;;;;;13.15;6.00;;;;;;;26.17;29.76;102577.84;6255245;22;20004;-94
2023/05/30 10:34:00;;;;;;;9.52;6.10;;;;;;;26.23;31.01;102571.06;6217377;22;20096;-94
2023/05/30 10:36:26;;;;;;;8.88;5.65;;;;;;;26.63;30.02;102574.19;6242679;22;20035;-94
2023/05/30 10:39:03;;;;;;;9.27;5.65;;;;;;;26.84;30.02;102573.41;6246407;22;20027;-94
2023/05/30 10:41:50;;;;;;;12.50;6.30;;;;;;;26.34;31.02;102573.75;6246965;22;20015;-94
2023/05/30 10:44:27;;;;;;;15.57;5.43;;;;;;;26.54;29.37;102564.09;6248647;22;20003;-93
2023/05/30 10:47:24;;;;;;;10.80;5.72;;;;;;;26.60;30.12;102560.88;6255663;22;20004;-94
2023/05/30 10:49:52;;;;;;;10.68;5.45;;;;;;;26.53;30.39;102553.34;6249597;22;20063;-93
2023/05/30 10:52:30;;;;;;;13.60;6.30;;;;;;;26.78;30.53;102553.09;6280922;22;20023;-94
2023/05/30 10:54:55;;;;;;;11.25;6.00;;;;;;;27.08;28.51;102555.13;6261357;22;20443;-93
2023/05/30 10:57:26;;;;;;;12.10;5.93;;;;;;;27.26;28.35;102551.88;6254506;22;20003;-95
2023/05/30 10:59:55;;;;;;;14.55;5.80;;;;;;;27.37;29.52;102554.53;6261903;22;20011;-93
2023/05/30 11:02:42;;;;;;;12.77;6.35;;;;;;;27.45;28.68;102538.47;6250599;22;20034;-95
2023/05/30 11:05:09;;;;;;;10.13;5.03;;;;;;;27.48;29.36;102543.63;6258326;22;20015;-94
2023/05/30 11:07:40;;;;;;;13.30;6.20;;;;;;;27.57;27.01;102534.69;6270549;22;20336;-92
2023/05/30 11:10:07;;;;;;;8.95;4.85;;;;;;;27.59;28.62;102542.72;6244834;22;20003;-93
2023/05/30 11:12:38;;;;;;;12.88;5.95;;;;;;;27.75;28.90;102534.16;6243797;22;20006;-94
2023/05/30 11:15:05;;;;;;;10.38;5.43;;;;;;;27.70;28.07;102534.53;6245060;22;20018;-92
2023/05/30 11:17:33;;;;;;;10.65;6.20;;;;;;;27.52;27.54;102530.66;6273208;22;20003;-93
2023/05/30 11:20:26;;;;;;;13.38;5.85;;;;;;;27.61;28.13;102529.88;6246325;22;20007;-94